Terminal Aerodrome Forecast
Issued by NWS

Home | Current Version | Previous Version | Text Only | Print | Product List | Glossary On
Versions: 1 2 3 4 5 6 7 8 9 10 11 12 13
000
FTUS44 KCRP 291100
TAFLRD
TAF
KLRD 291130Z 2912/3012 VRB06KT P6SM FEW050
     FM300200 14015KT P6SM SKC
     FM300800 14006KT P6SM SKC=

USA.gov is the U.S. government's official web portal to all federal, state and local government web resources and services.